createdAt,value
2022-08-26T00:00:21.093Z,100.00
2022-08-26T00:02:49.223Z,100.00
2022-08-26T00:05:17.329Z,100.00
2022-08-26T00:07:46.001Z,100.00
2022-08-26T00:10:14.077Z,100.00
2022-08-26T00:12:42.698Z,100.00
2022-08-26T00:15:13.603Z,100.00
2022-08-26T00:17:43.411Z,100.00
2022-08-26T00:20:14.098Z,100.00
2022-08-26T00:22:42.307Z,100.00
2022-08-26T00:25:12.164Z,100.00
2022-08-26T00:27:40.643Z,100.00
2022-08-26T00:30:11.934Z,100.00
2022-08-26T00:32:40.108Z,100.00
2022-08-26T00:35:13.867Z,100.00
2022-08-26T00:37:43.391Z,100.00
2022-08-26T00:40:16.623Z,100.00
2022-08-26T00:42:45.876Z,100.00
2022-08-26T00:45:15.300Z,100.00
2022-08-26T00:47:47.914Z,100.00
2022-08-26T00:50:19.706Z,100.00
2022-08-26T00:52:49.046Z,100.00
2022-08-26T00:55:23.125Z,100.00
2022-08-26T00:57:52.364Z,100.00
2022-08-26T01:00:23.983Z,100.00
2022-08-26T01:02:52.809Z,100.00
2022-08-26T01:05:22.179Z,100.00
2022-08-26T01:07:50.906Z,100.00
2022-08-26T01:10:22.344Z,100.00
2022-08-26T01:12:54.762Z,100.00
2022-08-26T01:15:26.134Z,100.00
2022-08-26T01:17:54.303Z,100.00
2022-08-26T01:20:30.155Z,100.00
2022-08-26T01:23:03.273Z,100.00
2022-08-26T01:25:34.908Z,100.00
2022-08-26T01:28:06.741Z,100.00
2022-08-26T01:30:36.532Z,100.00
2022-08-26T01:33:10.046Z,100.00
2022-08-26T01:35:39.577Z,100.00
2022-08-26T01:38:10.753Z,100.00
2022-08-26T01:40:43.895Z,100.00
2022-08-26T01:43:18.438Z,100.00
2022-08-26T01:45:48.757Z,100.00
2022-08-26T01:48:24.333Z,100.00
2022-08-26T01:50:53.940Z,100.00
2022-08-26T01:53:25.833Z,100.00
2022-08-26T01:55:58.953Z,100.00
2022-08-26T01:58:32.498Z,100.00
2022-08-26T02:01:00.981Z,100.00
2022-08-26T02:03:31.209Z,100.00
2022-08-26T02:06:04.654Z,100.00
2022-08-26T02:08:39.640Z,100.00
2022-08-26T02:11:08.121Z,100.00
2022-08-26T02:13:41.176Z,100.00
2022-08-26T02:16:11.822Z,100.00
2022-08-26T02:18:42.551Z,100.00
2022-08-26T02:21:12.126Z,100.00
2022-08-26T02:23:42.608Z,100.00
2022-08-26T02:26:17.902Z,100.00
2022-08-26T02:28:50.772Z,100.00
2022-08-26T02:31:19.120Z,100.00
2022-08-26T02:33:48.045Z,100.00
2022-08-26T02:36:21.126Z,100.00
2022-08-26T02:38:50.836Z,100.00
2022-08-26T02:41:20.148Z,100.00
2022-08-26T02:43:50.950Z,100.00
2022-08-26T02:46:21.530Z,100.00
2022-08-26T02:48:56.378Z,100.00
2022-08-26T02:51:24.665Z,100.00
2022-08-26T02:53:54.409Z,100.00
2022-08-26T02:56:23.501Z,100.00
2022-08-26T02:58:51.644Z,100.00
2022-08-26T03:01:26.587Z,100.00
2022-08-26T03:03:55.027Z,100.00
2022-08-26T03:06:24.336Z,100.00
2022-08-26T03:08:54.400Z,100.00
2022-08-26T03:11:23.665Z,100.00
2022-08-26T03:13:53.777Z,100.00
2022-08-26T03:16:22.002Z,100.00
2022-08-26T03:18:52.236Z,100.00
2022-08-26T03:21:21.438Z,100.00
2022-08-26T03:23:49.749Z,100.00
2022-08-26T03:26:19.611Z,100.00
2022-08-26T03:29:06.037Z,100.00
2022-08-26T03:31:34.449Z,100.00
2022-08-26T03:34:02.674Z,100.00
2022-08-26T03:36:31.020Z,100.00
2022-08-26T03:38:59.731Z,100.00
2022-08-26T03:41:29.164Z,100.00
2022-08-26T03:44:01.508Z,100.00
2022-08-26T03:46:31.557Z,100.00
2022-08-26T03:49:00.135Z,100.00
2022-08-26T03:51:28.757Z,100.00
2022-08-26T03:53:57.161Z,100.00
2022-08-26T03:56:25.298Z,100.00
2022-08-26T03:58:55.499Z,100.00
2022-08-26T04:01:24.093Z,100.00
2022-08-26T04:04:01.411Z,100.00
2022-08-26T04:06:31.045Z,100.00
2022-08-26T04:09:01.135Z,100.00
2022-08-26T04:11:32.145Z,100.00
2022-08-26T04:14:07.520Z,100.00
2022-08-26T04:16:35.847Z,100.00
2022-08-26T04:19:04.181Z,100.00
2022-08-26T04:21:32.676Z,100.00
2022-08-26T04:24:03.450Z,100.00
2022-08-26T04:26:37.020Z,100.00
2022-08-26T04:29:13.257Z,100.00
2022-08-26T04:31:41.578Z,100.00
2022-08-26T04:34:10.876Z,100.00
2022-08-26T04:36:39.359Z,100.00
2022-08-26T04:39:12.252Z,100.00
2022-08-26T04:41:40.671Z,100.00
2022-08-26T04:44:10.636Z,100.00
2022-08-26T04:46:39.767Z,100.00
2022-08-26T04:49:12.405Z,100.00
2022-08-26T04:51:40.733Z,100.00
2022-08-26T04:54:08.948Z,100.00
2022-08-26T04:56:39.763Z,100.00
2022-08-26T04:59:16.749Z,100.00
2022-08-26T05:01:47.930Z,100.00
2022-08-26T05:04:18.961Z,100.00
2022-08-26T05:06:47.595Z,100.00
2022-08-26T05:09:15.698Z,100.00
2022-08-26T05:11:43.750Z,100.00
2022-08-26T05:14:18.916Z,100.00
2022-08-26T05:16:47.742Z,100.00
2022-08-26T05:19:18.708Z,100.00
2022-08-26T05:21:47.833Z,100.00
2022-08-26T05:24:16.746Z,100.00
2022-08-26T05:26:45.335Z,100.00
2022-08-26T05:29:13.963Z,100.00
2022-08-26T05:31:43.579Z,100.00
2022-08-26T05:34:11.676Z,100.00
2022-08-26T05:36:40.229Z,100.00
2022-08-26T05:39:10.671Z,100.00
2022-08-26T05:41:41.130Z,100.00
2022-08-26T05:44:11.501Z,100.00
2022-08-26T05:46:41.283Z,100.00
2022-08-26T05:49:12.621Z,100.00
2022-08-26T05:51:41.936Z,100.00
2022-08-26T05:54:10.461Z,100.00
2022-08-26T05:56:39.226Z,100.00
2022-08-26T05:59:14.275Z,100.00
2022-08-26T06:01:43.144Z,100.00
2022-08-26T06:04:13.222Z,100.00
2022-08-26T06:06:42.635Z,100.00
2022-08-26T06:09:11.599Z,100.00
2022-08-26T06:11:40.513Z,100.00
2022-08-26T06:14:09.361Z,100.00
2022-08-26T06:16:40.893Z,100.00
2022-08-26T06:19:11.493Z,100.00
2022-08-26T06:21:42.987Z,100.00
2022-08-26T06:24:31.447Z,100.00
2022-08-26T06:27:01.616Z,100.00
2022-08-26T06:29:31.683Z,100.00
2022-08-26T06:32:00.279Z,100.00
2022-08-26T06:34:30.260Z,100.00
2022-08-26T06:37:02.458Z,100.00
2022-08-26T06:39:31.846Z,100.00
2022-08-26T06:42:00.498Z,100.00
2022-08-26T06:44:28.942Z,100.00
2022-08-26T06:46:57.006Z,100.00
2022-08-26T06:49:27.161Z,100.00
2022-08-26T06:51:58.632Z,100.00
2022-08-26T06:54:31.554Z,100.00
2022-08-26T06:57:01.171Z,100.00
2022-08-26T06:59:31.227Z,100.00
2022-08-26T07:01:59.527Z,100.00
2022-08-26T07:04:28.042Z,100.00
2022-08-26T07:06:56.736Z,100.00
2022-08-26T07:09:30.350Z,100.00
2022-08-26T07:11:58.971Z,100.00
2022-08-26T07:14:27.376Z,100.00
2022-08-26T07:16:55.927Z,100.00
2022-08-26T07:19:30.066Z,100.00
2022-08-26T07:21:59.072Z,100.00
2022-08-26T07:24:29.197Z,100.00
2022-08-26T07:27:00.722Z,100.00
2022-08-26T07:29:29.891Z,100.00
2022-08-26T07:31:58.064Z,100.00
2022-08-26T07:34:26.540Z,100.00
2022-08-26T07:36:55.293Z,100.00
2022-08-26T07:39:24.647Z,100.00
2022-08-26T07:41:54.419Z,89.02
2022-08-26T07:44:22.717Z,95.60
2022-08-26T07:46:53.457Z,100.00
2022-08-26T07:49:22.403Z,99.68
2022-08-26T07:51:51.377Z,99.29
2022-08-26T07:54:20.312Z,86.58
2022-08-26T07:56:56.981Z,91.42
2022-08-26T07:59:25.640Z,80.93
2022-08-26T08:01:54.193Z,90.58
2022-08-26T08:04:26.425Z,93.63
2022-08-26T08:06:56.091Z,82.65
2022-08-26T08:09:24.847Z,82.93
2022-08-26T08:11:54.118Z,96.04
2022-08-26T08:14:23.614Z,90.84
2022-08-26T08:16:54.735Z,88.41
2022-08-26T08:19:23.843Z,78.43
2022-08-26T08:21:52.168Z,77.81
2022-08-26T08:24:21.991Z,73.04
2022-08-26T08:26:50.482Z,75.20
2022-08-26T08:29:19.287Z,70.38
2022-08-26T08:31:56.759Z,73.30
2022-08-26T08:34:31.158Z,71.88
2022-08-26T08:36:59.595Z,71.81
2022-08-26T08:39:28.282Z,76.17
2022-08-26T08:42:31.496Z,72.40
2022-08-26T08:45:04.567Z,66.53
2022-08-26T08:47:38.655Z,72.50
2022-08-26T08:50:25.667Z,70.47
2022-08-26T08:53:01.954Z,67.97
2022-08-26T08:55:37.349Z,68.42
2022-08-26T08:58:10.086Z,67.90
2022-08-26T09:00:44.540Z,56.66
2022-08-26T09:03:27.944Z,69.32
2022-08-26T09:05:59.888Z,58.78
2022-08-26T09:08:35.197Z,60.01
2022-08-26T09:11:04.856Z,63.95
2022-08-26T09:13:35.289Z,61.07
2022-08-26T09:16:09.915Z,63.82
2022-08-26T09:18:52.777Z,59.91
2022-08-26T09:21:23.571Z,62.36
2022-08-26T09:23:55.686Z,63.89
2022-08-26T09:26:30.803Z,57.96
2022-08-26T09:29:02.673Z,56.17
2022-08-26T09:31:32.777Z,63.18
2022-08-26T09:34:13.117Z,58.20
2022-08-26T09:36:48.994Z,58.45
2022-08-26T09:39:28.413Z,51.97
2022-08-26T09:42:09.530Z,56.93
2022-08-26T09:44:55.804Z,50.17
2022-08-26T09:47:29.301Z,55.04
2022-08-26T09:50:04.590Z,51.63
2022-08-26T09:52:37.861Z,51.96
2022-08-26T09:55:13.866Z,50.42
2022-08-26T09:57:51.216Z,58.45
2022-08-26T10:00:32.875Z,53.55
2022-08-26T10:03:03.740Z,53.50
2022-08-26T10:05:40.794Z,60.03
2022-08-26T10:08:23.091Z,57.27
2022-08-26T10:10:53.414Z,51.18
2022-08-26T10:13:29.686Z,51.12
2022-08-26T10:16:05.605Z,53.83
2022-08-26T10:18:37.661Z,51.29
2022-08-26T10:21:11.379Z,51.20
2022-08-26T10:23:43.359Z,54.37
2022-08-26T10:26:17.508Z,51.93
2022-08-26T10:28:54.986Z,49.42
2022-08-26T10:31:30.289Z,46.84
2022-08-26T10:34:12.334Z,48.08
2022-08-26T10:37:15.699Z,51.97
2022-08-26T10:39:51.963Z,49.22
2022-08-26T10:42:31.080Z,49.45
2022-08-26T10:45:05.944Z,50.49
2022-08-26T10:47:42.677Z,49.30
2022-08-26T10:50:11.609Z,49.57
2022-08-26T10:52:56.406Z,50.99
2022-08-26T10:55:34.849Z,52.98
2022-08-26T10:58:26.467Z,52.31
2022-08-26T11:01:22.706Z,53.75
2022-08-26T11:04:01.309Z,53.12
2022-08-26T11:06:31.385Z,54.22
2022-08-26T11:09:02.232Z,52.11
2022-08-26T11:11:49.339Z,54.38
2022-08-26T11:14:58.863Z,55.50
2022-08-26T11:18:00.265Z,52.30
2022-08-26T11:20:42.104Z,51.87
2022-08-26T11:23:41.597Z,52.59
2022-08-26T11:26:30.045Z,49.46
2022-08-26T11:29:12.883Z,49.90
2022-08-26T11:31:57.506Z,47.65
2022-08-26T11:34:57.898Z,50.81
2022-08-26T11:37:33.895Z,47.76
2022-08-26T11:40:04.844Z,48.83
2022-08-26T11:42:41.031Z,47.04
2022-08-26T11:45:19.426Z,47.86
2022-08-26T11:47:49.498Z,45.86
2022-08-26T11:50:20.815Z,45.51
2022-08-26T11:52:59.186Z,47.74
2022-08-26T11:55:27.534Z,47.50
2022-08-26T11:58:00.860Z,48.48
2022-08-26T12:00:33.830Z,47.97
2022-08-26T12:03:09.281Z,47.29
2022-08-26T12:05:46.016Z,48.30
2022-08-26T12:08:18.441Z,47.15
2022-08-26T12:10:48.310Z,45.69
2022-08-26T12:13:26.518Z,45.37
2022-08-26T12:15:56.425Z,45.05
2022-08-26T12:18:28.938Z,44.91
2022-08-26T12:21:01.615Z,44.96
2022-08-26T12:23:41.440Z,46.64
2022-08-26T12:26:14.259Z,46.39
2022-08-26T12:28:47.304Z,43.90
2022-08-26T12:31:23.559Z,43.80
2022-08-26T12:33:53.049Z,48.14
2022-08-26T12:36:27.558Z,43.37
2022-08-26T12:38:58.436Z,45.16
2022-08-26T12:41:48.179Z,42.80
2022-08-26T12:44:53.785Z,39.96
2022-08-26T12:47:30.832Z,41.27
2022-08-26T12:50:17.560Z,41.81
2022-08-26T12:52:55.368Z,42.08
2022-08-26T12:55:26.115Z,41.08
2022-08-26T12:58:13.526Z,41.97
2022-08-26T13:00:45.245Z,46.52
2022-08-26T13:03:47.497Z,44.05
2022-08-26T13:06:27.948Z,38.59
2022-08-26T13:08:58.462Z,42.14
2022-08-26T13:11:29.086Z,43.12
2022-08-26T13:13:59.196Z,43.29
2022-08-26T13:16:29.515Z,43.28
2022-08-26T13:18:58.992Z,42.12
2022-08-26T13:21:30.003Z,41.35
2022-08-26T13:24:08.496Z,43.66
2022-08-26T13:26:36.863Z,41.37
2022-08-26T13:29:09.586Z,40.75
2022-08-26T13:31:42.085Z,42.99
2022-08-26T13:34:11.914Z,43.09
2022-08-26T13:36:40.367Z,44.59
2022-08-26T13:39:08.682Z,45.57
2022-08-26T13:41:37.287Z,44.40
2022-08-26T13:44:06.096Z,44.35
2022-08-26T13:46:34.430Z,43.42
2022-08-26T13:49:04.185Z,42.82
2022-08-26T13:51:33.365Z,45.38
2022-08-26T13:54:01.868Z,43.16
2022-08-26T13:56:31.210Z,44.07
2022-08-26T13:59:01.295Z,43.64
2022-08-26T14:01:31.166Z,44.62
2022-08-26T14:04:00.370Z,45.67
2022-08-26T14:06:31.507Z,44.58
2022-08-26T14:08:59.934Z,43.92
2022-08-26T14:11:29.067Z,44.07
2022-08-26T14:14:05.393Z,43.42
2022-08-26T14:16:37.211Z,44.76
2022-08-26T14:19:25.355Z,42.69
2022-08-26T14:21:55.139Z,43.92
2022-08-26T14:24:23.796Z,43.82
2022-08-26T14:26:51.905Z,43.15
2022-08-26T14:29:19.986Z,44.61
2022-08-26T14:31:48.455Z,43.89
2022-08-26T14:34:16.746Z,43.21
2022-08-26T14:36:44.919Z,43.74
2022-08-26T14:39:14.794Z,45.26
2022-08-26T14:41:54.584Z,45.58
2022-08-26T14:44:25.649Z,43.86
2022-08-26T14:46:54.698Z,45.15
2022-08-26T14:49:24.157Z,44.07
2022-08-26T14:51:52.286Z,43.56
2022-08-26T14:54:21.496Z,44.17
2022-08-26T14:56:51.800Z,43.42
2022-08-26T14:59:22.410Z,43.45
2022-08-26T15:01:51.071Z,45.15
2022-08-26T15:04:19.567Z,42.43
2022-08-26T15:06:47.995Z,43.30
2022-08-26T15:09:17.862Z,43.93
2022-08-26T15:11:48.019Z,45.43
2022-08-26T15:14:19.016Z,44.79
2022-08-26T15:16:49.622Z,44.38
2022-08-26T15:19:18.057Z,43.25
2022-08-26T15:21:47.443Z,45.41
2022-08-26T15:24:17.298Z,47.86
2022-08-26T15:26:47.738Z,46.16
2022-08-26T15:29:16.075Z,45.17
2022-08-26T15:31:44.347Z,44.55
2022-08-26T15:34:16.806Z,42.70
2022-08-26T15:36:47.029Z,46.41
2022-08-26T15:39:16.603Z,45.38
2022-08-26T15:41:45.059Z,41.80
2022-08-26T15:44:17.855Z,43.42
2022-08-26T15:46:46.607Z,46.24
2022-08-26T15:49:17.807Z,45.91
2022-08-26T15:51:50.466Z,44.62
2022-08-26T15:54:21.216Z,42.12
2022-08-26T15:56:52.161Z,45.27
2022-08-26T15:59:23.608Z,42.16
2022-08-26T16:01:52.310Z,44.53
2022-08-26T16:04:21.047Z,42.73
2022-08-26T16:06:52.247Z,41.84
2022-08-26T16:09:24.346Z,42.83
2022-08-26T16:11:52.823Z,44.06
2022-08-26T16:14:23.037Z,42.83
2022-08-26T16:16:51.697Z,44.25
2022-08-26T16:19:20.006Z,44.98
2022-08-26T16:21:48.352Z,44.36
2022-08-26T16:24:16.591Z,43.75
2022-08-26T16:26:45.726Z,42.16
2022-08-26T16:29:16.184Z,43.70
2022-08-26T16:31:45.620Z,42.90
2022-08-26T16:34:13.728Z,45.56
2022-08-26T16:36:42.030Z,44.44
2022-08-26T16:39:12.558Z,42.80
2022-08-26T16:41:42.445Z,45.31
2022-08-26T16:44:12.003Z,43.09
2022-08-26T16:46:41.329Z,42.94
2022-08-26T16:49:11.066Z,40.96
2022-08-26T16:51:39.345Z,43.23
2022-08-26T16:54:09.343Z,42.47
2022-08-26T16:56:38.581Z,45.94
2022-08-26T16:59:10.599Z,46.44
2022-08-26T17:01:38.983Z,43.59
2022-08-26T17:04:07.270Z,43.51
2022-08-26T17:06:37.001Z,45.99
2022-08-26T17:09:05.570Z,46.13
2022-08-26T17:11:34.421Z,46.61
2022-08-26T17:14:03.084Z,47.55
2022-08-26T17:16:31.582Z,47.94
2022-08-26T17:19:00.942Z,47.09
2022-08-26T17:21:29.953Z,47.64
2022-08-26T17:23:59.488Z,48.51
2022-08-26T17:26:27.904Z,47.89
2022-08-26T17:28:56.353Z,47.29
2022-08-26T17:31:25.212Z,44.34
2022-08-26T17:33:54.466Z,47.59
2022-08-26T17:36:27.559Z,47.00
2022-08-26T17:38:58.003Z,48.78
2022-08-26T17:41:28.170Z,46.08
2022-08-26T17:43:56.617Z,45.57
2022-08-26T17:46:25.145Z,45.80
2022-08-26T17:48:53.380Z,45.96
2022-08-26T17:51:23.419Z,45.10
2022-08-26T17:53:52.089Z,46.49
2022-08-26T17:56:24.217Z,48.36
2022-08-26T17:58:55.051Z,46.10
2022-08-26T18:01:27.094Z,46.24
2022-08-26T18:04:00.254Z,47.41
2022-08-26T18:06:32.385Z,47.31
2022-08-26T18:09:02.618Z,47.08
2022-08-26T18:11:31.976Z,47.50
2022-08-26T18:14:02.080Z,46.03
2022-08-26T18:16:31.771Z,46.12
2022-08-26T18:19:01.337Z,47.18
2022-08-26T18:21:29.577Z,48.89
2022-08-26T18:23:58.499Z,50.60
2022-08-26T18:26:29.453Z,49.70
2022-08-26T18:28:58.712Z,47.41
2022-08-26T18:31:28.973Z,48.10
2022-08-26T18:33:57.759Z,47.03
2022-08-26T18:36:27.887Z,48.28
2022-08-26T18:38:57.182Z,47.05
2022-08-26T18:41:28.958Z,47.21
2022-08-26T18:43:59.109Z,49.16
2022-08-26T18:46:29.926Z,50.05
2022-08-26T18:48:58.913Z,48.84
2022-08-26T18:51:29.715Z,49.55
2022-08-26T18:53:58.623Z,49.26
2022-08-26T18:56:27.641Z,48.23
2022-08-26T18:58:55.984Z,50.34
2022-08-26T19:01:27.345Z,48.67
2022-08-26T19:03:58.034Z,48.97
2022-08-26T19:06:28.262Z,50.56
2022-08-26T19:08:58.151Z,48.97
2022-08-26T19:11:32.476Z,49.09
2022-08-26T19:14:13.086Z,51.00
2022-08-26T19:16:42.507Z,51.47
2022-08-26T19:19:12.514Z,52.78
2022-08-26T19:21:41.391Z,52.26
2022-08-26T19:24:15.520Z,52.46
2022-08-26T19:26:45.202Z,52.86
2022-08-26T19:29:15.464Z,51.54
2022-08-26T19:31:44.512Z,52.62
2022-08-26T19:34:18.236Z,52.33
2022-08-26T19:36:49.312Z,49.48
2022-08-26T19:39:19.094Z,50.43
2022-08-26T19:41:47.574Z,51.06
2022-08-26T19:44:38.982Z,52.17
2022-08-26T19:47:09.546Z,51.52
2022-08-26T19:49:40.569Z,52.34
2022-08-26T19:52:09.084Z,53.94
2022-08-26T19:54:37.408Z,54.29
2022-08-26T19:57:06.164Z,52.85
2022-08-26T19:59:36.223Z,53.07
2022-08-26T20:02:08.508Z,53.65
2022-08-26T20:04:40.881Z,52.83
2022-08-26T20:07:11.399Z,54.11
2022-08-26T20:09:41.952Z,55.03
2022-08-26T20:12:12.452Z,55.13
2022-08-26T20:14:45.176Z,54.24
2022-08-26T20:17:14.588Z,55.05
2022-08-26T20:20:02.462Z,54.61
2022-08-26T20:22:31.013Z,55.90
2022-08-26T20:24:59.648Z,53.95
2022-08-26T20:27:37.889Z,55.08
2022-08-26T20:30:09.406Z,54.02
2022-08-26T20:32:40.852Z,55.63
2022-08-26T20:35:14.907Z,54.55
2022-08-26T20:37:44.203Z,55.01
2022-08-26T20:40:14.706Z,56.66
2022-08-26T20:42:43.393Z,55.92
2022-08-26T20:45:12.489Z,55.53
2022-08-26T20:47:41.149Z,56.82
2022-08-26T20:50:11.259Z,55.42
2022-08-26T20:52:39.763Z,57.04
2022-08-26T20:55:08.785Z,57.71
2022-08-26T20:57:39.039Z,56.95
2022-08-26T21:00:08.550Z,56.89
2022-08-26T21:02:38.892Z,56.83
2022-08-26T21:05:10.982Z,57.42
2022-08-26T21:07:39.516Z,57.44
2022-08-26T21:10:08.780Z,57.38
2022-08-26T21:12:37.319Z,58.29
2022-08-26T21:15:07.523Z,59.04
2022-08-26T21:17:37.646Z,59.14
2022-08-26T21:20:06.367Z,60.48
2022-08-26T21:22:36.449Z,60.80
2022-08-26T21:25:05.686Z,63.10
2022-08-26T21:27:35.707Z,62.63
2022-08-26T21:30:04.915Z,63.99
2022-08-26T21:32:33.585Z,64.25
2022-08-26T21:35:01.983Z,65.59
2022-08-26T21:37:31.316Z,65.93
2022-08-26T21:40:03.589Z,65.90
2022-08-26T21:42:34.425Z,65.49
2022-08-26T21:45:03.927Z,67.62
2022-08-26T21:47:32.806Z,66.11
2022-08-26T21:50:01.286Z,66.14
2022-08-26T21:52:29.889Z,67.99
2022-08-26T21:55:01.053Z,66.58
2022-08-26T21:57:30.165Z,69.58
2022-08-26T21:59:58.551Z,68.31
2022-08-26T22:02:26.800Z,67.65
2022-08-26T22:04:56.493Z,68.32
2022-08-26T22:07:24.772Z,68.40
2022-08-26T22:09:52.977Z,70.30
2022-08-26T22:12:22.706Z,69.69
2022-08-26T22:14:50.922Z,70.30
2022-08-26T22:17:20.130Z,70.86
2022-08-26T22:19:48.293Z,69.86
2022-08-26T22:22:16.917Z,71.51
2022-08-26T22:24:45.065Z,72.26
2022-08-26T22:27:14.401Z,69.96
2022-08-26T22:29:43.925Z,70.62
2022-08-26T22:32:12.213Z,73.87
2022-08-26T22:34:41.194Z,73.97
2022-08-26T22:37:09.571Z,73.66
2022-08-26T22:39:37.767Z,72.19
2022-08-26T22:42:05.995Z,73.51
2022-08-26T22:44:36.597Z,74.19
2022-08-26T22:47:31.369Z,71.83
2022-08-26T22:50:01.320Z,73.44
2022-08-26T22:52:29.468Z,75.20
2022-08-26T22:54:57.589Z,74.19
2022-08-26T22:57:29.182Z,74.81
2022-08-26T22:59:57.441Z,73.23
2022-08-26T23:02:25.512Z,72.79
2022-08-26T23:04:55.085Z,77.15
2022-08-26T23:07:23.228Z,76.14
2022-08-26T23:09:51.339Z,76.23
2022-08-26T23:12:20.565Z,78.04
2022-08-26T23:14:49.040Z,77.72
2022-08-26T23:17:17.201Z,78.23
2022-08-26T23:19:45.286Z,78.28
2022-08-26T23:22:16.955Z,78.59
2022-08-26T23:24:45.310Z,79.00
2022-08-26T23:27:13.414Z,79.47
2022-08-26T23:29:41.702Z,80.21
2022-08-26T23:32:10.277Z,76.68
2022-08-26T23:34:55.978Z,78.59
2022-08-26T23:37:26.452Z,82.45
2022-08-26T23:39:55.173Z,78.49
2022-08-26T23:42:23.446Z,77.84
2022-08-26T23:44:52.644Z,79.87
2022-08-26T23:47:21.252Z,82.05
2022-08-26T23:49:49.313Z,81.18
2022-08-26T23:52:40.230Z,82.27
2022-08-26T23:55:10.802Z,80.78
2022-08-26T23:57:39.499Z,83.44
